sensor_id;sensor_type;location;lat;lon;timestamp;P1;durP1;ratioP1;P2;durP2;ratioP2
17858;SDS011;35426;30.698;104.050;2022-10-24T00:02:11;61.47;;;39.10;;
17858;SDS011;35426;30.698;104.050;2022-10-24T00:04:48;59.23;;;36.07;;
17858;SDS011;35426;30.698;104.050;2022-10-24T00:07:21;57.67;;;37.07;;
17858;SDS011;35426;30.698;104.050;2022-10-24T00:09:55;55.03;;;37.53;;
17858;SDS011;35426;30.698;104.050;2022-10-24T00:12:31;59.80;;;36.73;;
17858;SDS011;35426;30.698;104.050;2022-10-24T00:15:06;58.47;;;37.23;;
17858;SDS011;35426;30.698;104.050;2022-10-24T00:17:41;59.77;;;36.53;;
17858;SDS011;35426;30.698;104.050;2022-10-24T00:20:15;62.60;;;38.30;;
17858;SDS011;35426;30.698;104.050;2022-10-24T00:22:49;60.07;;;38.23;;
17858;SDS011;35426;30.698;104.050;2022-10-24T00:25:23;61.60;;;36.70;;
17858;SDS011;35426;30.698;104.050;2022-10-24T00:27:59;65.20;;;36.17;;
17858;SDS011;35426;30.698;104.050;2022-10-24T00:30:33;62.63;;;36.50;;
17858;SDS011;35426;30.698;104.050;2022-10-24T00:33:07;57.00;;;34.90;;
17858;SDS011;35426;30.698;104.050;2022-10-24T00:35:41;55.80;;;35.13;;
17858;SDS011;35426;30.698;104.050;2022-10-24T00:38:15;55.13;;;34.87;;
17858;SDS011;35426;30.698;104.050;2022-10-24T00:40:50;54.40;;;35.50;;
17858;SDS011;35426;30.698;104.050;2022-10-24T00:43:26;62.73;;;36.13;;
17858;SDS011;35426;30.698;104.050;2022-10-24T00:46:02;58.57;;;34.87;;
17858;SDS011;35426;30.698;104.050;2022-10-24T00:48:36;52.60;;;34.27;;
17858;SDS011;35426;30.698;104.050;2022-10-24T00:51:15;56.60;;;35.60;;
17858;SDS011;35426;30.698;104.050;2022-10-24T00:53:54;55.70;;;34.77;;
17858;SDS011;35426;30.698;104.050;2022-10-24T00:56:32;63.13;;;35.80;;
17858;SDS011;35426;30.698;104.050;2022-10-24T00:59:12;56.23;;;34.63;;
17858;SDS011;35426;30.698;104.050;2022-10-24T01:01:48;58.10;;;34.50;;
17858;SDS011;35426;30.698;104.050;2022-10-24T01:04:23;59.97;;;35.33;;
17858;SDS011;35426;30.698;104.050;2022-10-24T01:07:00;57.90;;;35.80;;
17858;SDS011;35426;30.698;104.050;2022-10-24T01:09:55;61.00;;;36.40;;
17858;SDS011;35426;30.698;104.050;2022-10-24T01:12:45;62.40;;;36.63;;
17858;SDS011;35426;30.698;104.050;2022-10-24T01:15:39;65.30;;;37.57;;
17858;SDS011;35426;30.698;104.050;2022-10-24T01:18:20;63.87;;;36.57;;
17858;SDS011;35426;30.698;104.050;2022-10-24T01:23:57;58.67;;;36.37;;
17858;SDS011;35426;30.698;104.050;2022-10-24T01:27:00;62.03;;;36.53;;
17858;SDS011;35426;30.698;104.050;2022-10-24T01:29:50;62.47;;;37.83;;
17858;SDS011;35426;30.698;104.050;2022-10-24T01:32:33;69.87;;;39.27;;
17858;SDS011;35426;30.698;104.050;2022-10-24T01:35:13;65.17;;;37.73;;
17858;SDS011;35426;30.698;104.050;2022-10-24T01:38:08;67.80;;;40.40;;
17858;SDS011;35426;30.698;104.050;2022-10-24T01:40:50;69.60;;;38.50;;
17858;SDS011;35426;30.698;104.050;2022-10-24T01:43:28;80.97;;;42.53;;
17858;SDS011;35426;30.698;104.050;2022-10-24T01:46:08;70.47;;;42.73;;
17858;SDS011;35426;30.698;104.050;2022-10-24T01:48:46;77.00;;;43.83;;
17858;SDS011;35426;30.698;104.050;2022-10-24T01:51:24;75.27;;;43.00;;
17858;SDS011;35426;30.698;104.050;2022-10-24T01:54:01;74.50;;;42.70;;
17858;SDS011;35426;30.698;104.050;2022-10-24T01:56:37;74.43;;;43.83;;
17858;SDS011;35426;30.698;104.050;2022-10-24T02:02:18;71.50;;;41.90;;
17858;SDS011;35426;30.698;104.050;2022-10-24T02:04:58;68.43;;;41.47;;
17858;SDS011;35426;30.698;104.050;2022-10-24T02:07:36;72.80;;;44.10;;
17858;SDS011;35426;30.698;104.050;2022-10-24T02:10:15;68.30;;;41.47;;
17858;SDS011;35426;30.698;104.050;2022-10-24T02:12:54;83.87;;;41.87;;
17858;SDS011;35426;30.698;104.050;2022-10-24T02:15:34;78.67;;;43.37;;
17858;SDS011;35426;30.698;104.050;2022-10-24T02:18:14;79.70;;;45.90;;
17858;SDS011;35426;30.698;104.050;2022-10-24T02:20:50;71.00;;;44.27;;
17858;SDS011;35426;30.698;104.050;2022-10-24T02:23:30;86.23;;;46.07;;
17858;SDS011;35426;30.698;104.050;2022-10-24T02:26:10;84.60;;;47.87;;
17858;SDS011;35426;30.698;104.050;2022-10-24T02:28:52;89.07;;;48.37;;
17858;SDS011;35426;30.698;104.050;2022-10-24T02:31:30;95.90;;;49.83;;
17858;SDS011;35426;30.698;104.050;2022-10-24T02:34:12;83.93;;;49.40;;
17858;SDS011;35426;30.698;104.050;2022-10-24T02:36:49;98.70;;;50.30;;
17858;SDS011;35426;30.698;104.050;2022-10-24T02:39:27;94.63;;;50.17;;
17858;SDS011;35426;30.698;104.050;2022-10-24T02:42:03;92.70;;;50.13;;
17858;SDS011;35426;30.698;104.050;2022-10-24T02:44:40;91.40;;;51.43;;
17858;SDS011;35426;30.698;104.050;2022-10-24T02:47:15;95.67;;;50.60;;
17858;SDS011;35426;30.698;104.050;2022-10-24T02:49:55;89.10;;;49.43;;
17858;SDS011;35426;30.698;104.050;2022-10-24T02:52:30;83.60;;;50.13;;
17858;SDS011;35426;30.698;104.050;2022-10-24T02:55:05;84.33;;;51.23;;
17858;SDS011;35426;30.698;104.050;2022-10-24T02:57:42;84.17;;;52.93;;
17858;SDS011;35426;30.698;104.050;2022-10-24T03:00:17;92.83;;;52.37;;
17858;SDS011;35426;30.698;104.050;2022-10-24T03:02:52;85.87;;;51.00;;
17858;SDS011;35426;30.698;104.050;2022-10-24T03:05:28;89.10;;;53.37;;
17858;SDS011;35426;30.698;104.050;2022-10-24T03:08:03;88.63;;;54.43;;
17858;SDS011;35426;30.698;104.050;2022-10-24T03:10:38;90.67;;;53.20;;
17858;SDS011;35426;30.698;104.050;2022-10-24T03:13:13;86.53;;;51.17;;
17858;SDS011;35426;30.698;104.050;2022-10-24T03:15:49;93.63;;;52.40;;
17858;SDS011;35426;30.698;104.050;2022-10-24T03:18:24;93.00;;;53.43;;
17858;SDS011;35426;30.698;104.050;2022-10-24T03:21:00;91.17;;;54.40;;
17858;SDS011;35426;30.698;104.050;2022-10-24T03:23:38;95.27;;;53.33;;
17858;SDS011;35426;30.698;104.050;2022-10-24T03:26:12;94.40;;;54.37;;
17858;SDS011;35426;30.698;104.050;2022-10-24T03:28:47;94.80;;;52.83;;
17858;SDS011;35426;30.698;104.050;2022-10-24T03:31:21;82.83;;;50.00;;
17858;SDS011;35426;30.698;104.050;2022-10-24T03:33:56;90.70;;;50.73;;
17858;SDS011;35426;30.698;104.050;2022-10-24T03:36:33;77.97;;;49.67;;
17858;SDS011;35426;30.698;104.050;2022-10-24T03:39:08;96.70;;;52.60;;
17858;SDS011;35426;30.698;104.050;2022-10-24T03:41:43;93.17;;;52.80;;
17858;SDS011;35426;30.698;104.050;2022-10-24T03:44:18;85.17;;;50.67;;
17858;SDS011;35426;30.698;104.050;2022-10-24T03:46:53;83.87;;;51.73;;
17858;SDS011;35426;30.698;104.050;2022-10-24T03:49:28;90.20;;;51.87;;
17858;SDS011;35426;30.698;104.050;2022-10-24T03:52:05;86.23;;;50.23;;
17858;SDS011;35426;30.698;104.050;2022-10-24T03:54:40;102.47;;;56.07;;
17858;SDS011;35426;30.698;104.050;2022-10-24T03:57:15;83.47;;;51.43;;
17858;SDS011;35426;30.698;104.050;2022-10-24T03:59:50;96.03;;;54.50;;
17858;SDS011;35426;30.698;104.050;2022-10-24T04:02:24;86.97;;;52.33;;
17858;SDS011;35426;30.698;104.050;2022-10-24T04:04:59;84.40;;;50.50;;
17858;SDS011;35426;30.698;104.050;2022-10-24T04:07:36;91.23;;;52.90;;
17858;SDS011;35426;30.698;104.050;2022-10-24T04:10:13;92.07;;;53.83;;
17858;SDS011;35426;30.698;104.050;2022-10-24T04:12:47;85.93;;;52.30;;
17858;SDS011;35426;30.698;104.050;2022-10-24T04:15:21;90.90;;;52.53;;
17858;SDS011;35426;30.698;104.050;2022-10-24T04:17:54;86.37;;;51.13;;
17858;SDS011;35426;30.698;104.050;2022-10-24T04:20:29;94.03;;;51.30;;
17858;SDS011;35426;30.698;104.050;2022-10-24T04:23:08;87.83;;;52.00;;
17858;SDS011;35426;30.698;104.050;2022-10-24T04:25:43;92.80;;;52.20;;
17858;SDS011;35426;30.698;104.050;2022-10-24T04:28:18;81.83;;;49.10;;
17858;SDS011;35426;30.698;104.050;2022-10-24T04:30:55;81.10;;;49.77;;
17858;SDS011;35426;30.698;104.050;2022-10-24T04:33:29;85.73;;;48.83;;
17858;SDS011;35426;30.698;104.050;2022-10-24T04:36:05;77.23;;;46.17;;
17858;SDS011;35426;30.698;104.050;2022-10-24T04:38:41;80.77;;;46.97;;
17858;SDS011;35426;30.698;104.050;2022-10-24T04:41:16;86.33;;;49.03;;
17858;SDS011;35426;30.698;104.050;2022-10-24T04:43:52;87.20;;;50.67;;
17858;SDS011;35426;30.698;104.050;2022-10-24T04:46:27;94.47;;;53.50;;
17858;SDS011;35426;30.698;104.050;2022-10-24T04:49:04;86.90;;;53.80;;
17858;SDS011;35426;30.698;104.050;2022-10-24T04:51:38;89.93;;;54.13;;
17858;SDS011;35426;30.698;104.050;2022-10-24T04:54:16;91.60;;;51.83;;
17858;SDS011;35426;30.698;104.050;2022-10-24T04:56:55;91.70;;;52.17;;
17858;SDS011;35426;30.698;104.050;2022-10-24T04:59:29;87.00;;;52.53;;
17858;SDS011;35426;30.698;104.050;2022-10-24T05:02:05;85.53;;;51.80;;
17858;SDS011;35426;30.698;104.050;2022-10-24T05:04:39;82.90;;;52.10;;
17858;SDS011;35426;30.698;104.050;2022-10-24T05:07:15;87.47;;;50.30;;
17858;SDS011;35426;30.698;104.050;2022-10-24T05:09:53;83.60;;;48.93;;
17858;SDS011;35426;30.698;104.050;2022-10-24T05:12:28;82.13;;;49.13;;
17858;SDS011;35426;30.698;104.050;2022-10-24T05:15:05;82.90;;;49.77;;
17858;SDS011;35426;30.698;104.050;2022-10-24T05:17:43;83.00;;;50.20;;
17858;SDS011;35426;30.698;104.050;2022-10-24T05:20:24;78.87;;;49.27;;
17858;SDS011;35426;30.698;104.050;2022-10-24T05:23:00;80.20;;;48.77;;
17858;SDS011;35426;30.698;104.050;2022-10-24T05:25:37;87.23;;;48.40;;
17858;SDS011;35426;30.698;104.050;2022-10-24T05:28:12;82.87;;;50.03;;
17858;SDS011;35426;30.698;104.050;2022-10-24T05:30:47;85.27;;;49.23;;
17858;SDS011;35426;30.698;104.050;2022-10-24T05:33:22;78.07;;;47.57;;
17858;SDS011;35426;30.698;104.050;2022-10-24T05:36:01;76.40;;;47.37;;
17858;SDS011;35426;30.698;104.050;2022-10-24T05:38:37;75.87;;;48.00;;
17858;SDS011;35426;30.698;104.050;2022-10-24T05:41:15;83.27;;;49.63;;
17858;SDS011;35426;30.698;104.050;2022-10-24T05:43:50;77.47;;;48.57;;
17858;SDS011;35426;30.698;104.050;2022-10-24T05:46:25;79.70;;;47.40;;
17858;SDS011;35426;30.698;104.050;2022-10-24T05:49:01;79.77;;;49.40;;
17858;SDS011;35426;30.698;104.050;2022-10-24T05:51:36;76.63;;;46.00;;
17858;SDS011;35426;30.698;104.050;2022-10-24T05:54:15;78.90;;;46.77;;
17858;SDS011;35426;30.698;104.050;2022-10-24T05:56:52;73.83;;;46.63;;
17858;SDS011;35426;30.698;104.050;2022-10-24T05:59:33;76.07;;;47.43;;
17858;SDS011;35426;30.698;104.050;2022-10-24T06:02:17;78.33;;;48.00;;
17858;SDS011;35426;30.698;104.050;2022-10-24T06:04:58;78.97;;;49.63;;
17858;SDS011;35426;30.698;104.050;2022-10-24T06:07:32;79.83;;;49.77;;
17858;SDS011;35426;30.698;104.050;2022-10-24T06:10:07;81.13;;;49.00;;
17858;SDS011;35426;30.698;104.050;2022-10-24T06:12:45;81.17;;;49.67;;
17858;SDS011;35426;30.698;104.050;2022-10-24T06:15:20;80.00;;;46.93;;
17858;SDS011;35426;30.698;104.050;2022-10-24T06:17:55;76.97;;;48.43;;
17858;SDS011;35426;30.698;104.050;2022-10-24T06:20:32;82.70;;;49.17;;
17858;SDS011;35426;30.698;104.050;2022-10-24T06:23:08;89.13;;;48.57;;
17858;SDS011;35426;30.698;104.050;2022-10-24T06:25:42;87.03;;;50.03;;
17858;SDS011;35426;30.698;104.050;2022-10-24T06:28:19;85.53;;;50.23;;
17858;SDS011;35426;30.698;104.050;2022-10-24T06:30:54;85.83;;;50.93;;
17858;SDS011;35426;30.698;104.050;2022-10-24T06:33:32;78.13;;;49.70;;
17858;SDS011;35426;30.698;104.050;2022-10-24T06:36:07;85.20;;;50.23;;
17858;SDS011;35426;30.698;104.050;2022-10-24T06:38:42;86.07;;;52.63;;
17858;SDS011;35426;30.698;104.050;2022-10-24T06:41:21;82.97;;;49.83;;
17858;SDS011;35426;30.698;104.050;2022-10-24T06:43:58;85.97;;;49.67;;
17858;SDS011;35426;30.698;104.050;2022-10-24T06:46:38;85.70;;;49.03;;
17858;SDS011;35426;30.698;104.050;2022-10-24T06:49:12;85.93;;;49.53;;
17858;SDS011;35426;30.698;104.050;2022-10-24T06:51:46;79.47;;;48.43;;
17858;SDS011;35426;30.698;104.050;2022-10-24T06:54:21;85.23;;;49.90;;
17858;SDS011;35426;30.698;104.050;2022-10-24T06:57:10;79.23;;;48.67;;
17858;SDS011;35426;30.698;104.050;2022-10-24T06:59:49;83.97;;;49.03;;
17858;SDS011;35426;30.698;104.050;2022-10-24T07:02:30;82.70;;;48.20;;
17858;SDS011;35426;30.698;104.050;2022-10-24T07:05:05;78.30;;;47.97;;
17858;SDS011;35426;30.698;104.050;2022-10-24T07:07:42;82.87;;;48.07;;
17858;SDS011;35426;30.698;104.050;2022-10-24T07:10:17;81.63;;;47.87;;
17858;SDS011;35426;30.698;104.050;2022-10-24T07:12:56;75.53;;;48.67;;
17858;SDS011;35426;30.698;104.050;2022-10-24T07:15:37;80.90;;;50.00;;
17858;SDS011;35426;30.698;104.050;2022-10-24T07:18:13;83.53;;;49.70;;
17858;SDS011;35426;30.698;104.050;2022-10-24T07:20:47;86.53;;;50.03;;
17858;SDS011;35426;30.698;104.050;2022-10-24T07:23:21;89.50;;;52.50;;
17858;SDS011;35426;30.698;104.050;2022-10-24T07:25:59;84.80;;;50.67;;
17858;SDS011;35426;30.698;104.050;2022-10-24T07:28:35;89.23;;;50.90;;
17858;SDS011;35426;30.698;104.050;2022-10-24T07:31:24;86.17;;;52.90;;
17858;SDS011;35426;30.698;104.050;2022-10-24T07:34:01;94.47;;;52.23;;
17858;SDS011;35426;30.698;104.050;2022-10-24T07:36:39;92.27;;;52.50;;
17858;SDS011;35426;30.698;104.050;2022-10-24T07:39:14;90.50;;;54.33;;
17858;SDS011;35426;30.698;104.050;2022-10-24T07:41:49;90.23;;;53.27;;
17858;SDS011;35426;30.698;104.050;2022-10-24T07:44:23;87.40;;;54.40;;
17858;SDS011;35426;30.698;104.050;2022-10-24T07:47:06;96.37;;;55.07;;
17858;SDS011;35426;30.698;104.050;2022-10-24T07:49:40;97.10;;;55.00;;
17858;SDS011;35426;30.698;104.050;2022-10-24T07:52:14;103.60;;;57.63;;
17858;SDS011;35426;30.698;104.050;2022-10-24T07:54:48;96.63;;;55.50;;
17858;SDS011;35426;30.698;104.050;2022-10-24T07:57:25;107.97;;;55.20;;
17858;SDS011;35426;30.698;104.050;2022-10-24T08:00:02;98.07;;;55.97;;
17858;SDS011;35426;30.698;104.050;2022-10-24T08:02:41;95.20;;;54.97;;
17858;SDS011;35426;30.698;104.050;2022-10-24T08:05:22;97.13;;;56.50;;
17858;SDS011;35426;30.698;104.050;2022-10-24T08:07:59;102.63;;;55.60;;
17858;SDS011;35426;30.698;104.050;2022-10-24T08:10:53;102.90;;;57.37;;
17858;SDS011;35426;30.698;104.050;2022-10-24T08:13:32;102.53;;;57.83;;
17858;SDS011;35426;30.698;104.050;2022-10-24T08:16:08;93.00;;;56.17;;
17858;SDS011;35426;30.698;104.050;2022-10-24T08:18:47;106.43;;;58.60;;
17858;SDS011;35426;30.698;104.050;2022-10-24T08:21:23;99.07;;;56.43;;
17858;SDS011;35426;30.698;104.050;2022-10-24T08:23:59;101.37;;;57.63;;
17858;SDS011;35426;30.698;104.050;2022-10-24T08:26:35;108.03;;;59.27;;
17858;SDS011;35426;30.698;104.050;2022-10-24T08:29:10;110.80;;;60.03;;
17858;SDS011;35426;30.698;104.050;2022-10-24T08:31:50;98.53;;;59.47;;
17858;SDS011;35426;30.698;104.050;2022-10-24T08:34:28;106.77;;;59.80;;
17858;SDS011;35426;30.698;104.050;2022-10-24T08:37:06;106.37;;;60.00;;
17858;SDS011;35426;30.698;104.050;2022-10-24T08:39:40;99.03;;;59.27;;
17858;SDS011;35426;30.698;104.050;2022-10-24T08:42:15;112.40;;;60.57;;
17858;SDS011;35426;30.698;104.050;2022-10-24T08:44:54;105.17;;;59.43;;
17858;SDS011;35426;30.698;104.050;2022-10-24T08:47:30;103.13;;;59.63;;
17858;SDS011;35426;30.698;104.050;2022-10-24T08:50:15;116.30;;;64.43;;
17858;SDS011;35426;30.698;104.050;2022-10-24T08:52:56;113.10;;;64.43;;
17858;SDS011;35426;30.698;104.050;2022-10-24T08:55:36;121.27;;;64.80;;
17858;SDS011;35426;30.698;104.050;2022-10-24T08:58:19;108.47;;;64.43;;
17858;SDS011;35426;30.698;104.050;2022-10-24T09:00:58;109.97;;;63.50;;
17858;SDS011;35426;30.698;104.050;2022-10-24T09:03:37;114.53;;;63.87;;
17858;SDS011;35426;30.698;104.050;2022-10-24T09:06:27;110.27;;;63.97;;
17858;SDS011;35426;30.698;104.050;2022-10-24T09:09:10;111.70;;;64.07;;
17858;SDS011;35426;30.698;104.050;2022-10-24T09:11:51;116.67;;;65.40;;
17858;SDS011;35426;30.698;104.050;2022-10-24T09:14:27;117.23;;;63.87;;
17858;SDS011;35426;30.698;104.050;2022-10-24T09:17:10;113.23;;;63.23;;
17858;SDS011;35426;30.698;104.050;2022-10-24T09:19:51;115.80;;;64.23;;
17858;SDS011;35426;30.698;104.050;2022-10-24T09:22:29;110.97;;;62.50;;
17858;SDS011;35426;30.698;104.050;2022-10-24T09:25:12;115.87;;;65.57;;
17858;SDS011;35426;30.698;104.050;2022-10-24T09:27:49;127.90;;;67.00;;
17858;SDS011;35426;30.698;104.050;2022-10-24T09:30:24;115.70;;;68.00;;
17858;SDS011;35426;30.698;104.050;2022-10-24T09:33:03;129.97;;;66.37;;
17858;SDS011;35426;30.698;104.050;2022-10-24T09:35:47;120.40;;;67.23;;
17858;SDS011;35426;30.698;104.050;2022-10-24T09:38:29;131.03;;;70.93;;
17858;SDS011;35426;30.698;104.050;2022-10-24T09:41:05;127.70;;;72.97;;
17858;SDS011;35426;30.698;104.050;2022-10-24T09:43:50;124.90;;;71.03;;
17858;SDS011;35426;30.698;104.050;2022-10-24T09:46:27;133.67;;;75.50;;
17858;SDS011;35426;30.698;104.050;2022-10-24T09:49:17;124.43;;;73.13;;
17858;SDS011;35426;30.698;104.050;2022-10-24T09:51:59;126.07;;;73.30;;
17858;SDS011;35426;30.698;104.050;2022-10-24T09:54:43;130.47;;;77.03;;
17858;SDS011;35426;30.698;104.050;2022-10-24T09:57:20;131.00;;;74.67;;
17858;SDS011;35426;30.698;104.050;2022-10-24T09:59:59;134.73;;;75.70;;
17858;SDS011;35426;30.698;104.050;2022-10-24T10:02:35;126.50;;;73.33;;
17858;SDS011;35426;30.698;104.050;2022-10-24T10:05:19;129.47;;;72.90;;
17858;SDS011;35426;30.698;104.050;2022-10-24T10:07:55;129.63;;;74.63;;
17858;SDS011;35426;30.698;104.050;2022-10-24T10:10:43;125.63;;;72.23;;
17858;SDS011;35426;30.698;104.050;2022-10-24T10:13:29;131.77;;;76.27;;
17858;SDS011;35426;30.698;104.050;2022-10-24T10:16:10;138.40;;;76.20;;
17858;SDS011;35426;30.698;104.050;2022-10-24T10:19:00;132.37;;;77.43;;
17858;SDS011;35426;30.698;104.050;2022-10-24T10:21:53;136.30;;;77.30;;
17858;SDS011;35426;30.698;104.050;2022-10-24T10:24:35;143.10;;;78.97;;
17858;SDS011;35426;30.698;104.050;2022-10-24T10:27:29;130.47;;;75.90;;
17858;SDS011;35426;30.698;104.050;2022-10-24T10:30:08;136.57;;;77.97;;
17858;SDS011;35426;30.698;104.050;2022-10-24T10:32:59;146.70;;;77.07;;
17858;SDS011;35426;30.698;104.050;2022-10-24T10:35:44;133.07;;;77.53;;
17858;SDS011;35426;30.698;104.050;2022-10-24T10:38:32;134.63;;;75.67;;
17858;SDS011;35426;30.698;104.050;2022-10-24T10:41:25;136.17;;;78.47;;
17858;SDS011;35426;30.698;104.050;2022-10-24T10:44:21;133.27;;;75.97;;
17858;SDS011;35426;30.698;104.050;2022-10-24T10:47:11;135.40;;;76.17;;
17858;SDS011;35426;30.698;104.050;2022-10-24T10:49:56;130.90;;;75.27;;
17858;SDS011;35426;30.698;104.050;2022-10-24T10:52:35;122.50;;;71.13;;
17858;SDS011;35426;30.698;104.050;2022-10-24T10:55:22;119.93;;;70.37;;
17858;SDS011;35426;30.698;104.050;2022-10-24T10:58:04;103.67;;;61.23;;
17858;SDS011;35426;30.698;104.050;2022-10-24T11:01:09;109.73;;;61.13;;
17858;SDS011;35426;30.698;104.050;2022-10-24T11:03:49;109.97;;;61.80;;
17858;SDS011;35426;30.698;104.050;2022-10-24T11:06:32;115.60;;;61.67;;
17858;SDS011;35426;30.698;104.050;2022-10-24T11:09:23;116.33;;;60.40;;
17858;SDS011;35426;30.698;104.050;2022-10-24T11:12:05;109.27;;;60.50;;
17858;SDS011;35426;30.698;104.050;2022-10-24T11:14:48;111.47;;;61.37;;
17858;SDS011;35426;30.698;104.050;2022-10-24T11:17:31;117.73;;;60.63;;
17858;SDS011;35426;30.698;104.050;2022-10-24T11:20:14;108.10;;;61.10;;
17858;SDS011;35426;30.698;104.050;2022-10-24T11:22:53;109.20;;;61.70;;
17858;SDS011;35426;30.698;104.050;2022-10-24T11:25:35;108.20;;;62.13;;
17858;SDS011;35426;30.698;104.050;2022-10-24T11:28:14;105.10;;;60.67;;
17858;SDS011;35426;30.698;104.050;2022-10-24T11:30:55;108.47;;;61.00;;
17858;SDS011;35426;30.698;104.050;2022-10-24T11:33:52;109.77;;;60.27;;
17858;SDS011;35426;30.698;104.050;2022-10-24T11:36:32;110.83;;;60.93;;
17858;SDS011;35426;30.698;104.050;2022-10-24T11:39:23;110.50;;;62.30;;
17858;SDS011;35426;30.698;104.050;2022-10-24T11:42:06;112.60;;;63.17;;
17858;SDS011;35426;30.698;104.050;2022-10-24T11:44:52;111.13;;;61.43;;
17858;SDS011;35426;30.698;104.050;2022-10-24T11:47:40;108.23;;;62.60;;
17858;SDS011;35426;30.698;104.050;2022-10-24T11:50:26;107.47;;;61.40;;
17858;SDS011;35426;30.698;104.050;2022-10-24T11:53:15;110.53;;;63.40;;
17858;SDS011;35426;30.698;104.050;2022-10-24T11:56:13;111.10;;;63.57;;
17858;SDS011;35426;30.698;104.050;2022-10-24T11:58:55;106.90;;;63.23;;
17858;SDS011;35426;30.698;104.050;2022-10-24T12:01:40;120.97;;;66.60;;
17858;SDS011;35426;30.698;104.050;2022-10-24T12:04:28;117.53;;;66.30;;
17858;SDS011;35426;30.698;104.050;2022-10-24T12:07:30;122.43;;;66.50;;
17858;SDS011;35426;30.698;104.050;2022-10-24T12:10:36;119.43;;;66.33;;
17858;SDS011;35426;30.698;104.050;2022-10-24T12:13:39;124.03;;;67.33;;
17858;SDS011;35426;30.698;104.050;2022-10-24T12:16:40;125.00;;;67.90;;
17858;SDS011;35426;30.698;104.050;2022-10-24T12:19:27;124.20;;;68.77;;
17858;SDS011;35426;30.698;104.050;2022-10-24T12:22:06;122.73;;;69.80;;
17858;SDS011;35426;30.698;104.050;2022-10-24T12:25:03;143.60;;;69.37;;
17858;SDS011;35426;30.698;104.050;2022-10-24T12:27:40;123.37;;;69.97;;
17858;SDS011;35426;30.698;104.050;2022-10-24T12:30:33;116.40;;;68.53;;
17858;SDS011;35426;30.698;104.050;2022-10-24T12:33:21;125.93;;;69.87;;
17858;SDS011;35426;30.698;104.050;2022-10-24T12:35:59;128.80;;;70.27;;
17858;SDS011;35426;30.698;104.050;2022-10-24T12:41:43;125.33;;;72.27;;
17858;SDS011;35426;30.698;104.050;2022-10-24T12:44:40;126.53;;;71.53;;
17858;SDS011;35426;30.698;104.050;2022-10-24T12:47:29;129.63;;;70.93;;
17858;SDS011;35426;30.698;104.050;2022-10-24T12:53:34;124.70;;;71.07;;
17858;SDS011;35426;30.698;104.050;2022-10-24T12:56:23;134.03;;;73.20;;
17858;SDS011;35426;30.698;104.050;2022-10-24T12:59:01;130.47;;;74.30;;
17858;SDS011;35426;30.698;104.050;2022-10-24T13:02:23;129.97;;;74.00;;
17858;SDS011;35426;30.698;104.050;2022-10-24T13:05:33;130.23;;;75.57;;
17858;SDS011;35426;30.698;104.050;2022-10-24T13:08:38;133.33;;;73.87;;
17858;SDS011;35426;30.698;104.050;2022-10-24T13:11:31;130.13;;;74.03;;
17858;SDS011;35426;30.698;104.050;2022-10-24T13:14:42;127.17;;;74.10;;
17858;SDS011;35426;30.698;104.050;2022-10-24T13:17:34;132.53;;;76.17;;
17858;SDS011;35426;30.698;104.050;2022-10-24T13:20:15;128.80;;;75.57;;
17858;SDS011;35426;30.698;104.050;2022-10-24T13:22:59;130.03;;;73.60;;
17858;SDS011;35426;30.698;104.050;2022-10-24T13:25:48;132.67;;;75.90;;
17858;SDS011;35426;30.698;104.050;2022-10-24T13:28:37;135.63;;;77.20;;
17858;SDS011;35426;30.698;104.050;2022-10-24T13:34:25;135.43;;;77.77;;
17858;SDS011;35426;30.698;104.050;2022-10-24T13:37:13;133.50;;;80.53;;
17858;SDS011;35426;30.698;104.050;2022-10-24T13:40:00;136.97;;;80.67;;
17858;SDS011;35426;30.698;104.050;2022-10-24T13:42:42;137.80;;;80.87;;
17858;SDS011;35426;30.698;104.050;2022-10-24T13:45:26;130.13;;;79.20;;
17858;SDS011;35426;30.698;104.050;2022-10-24T13:48:14;134.27;;;81.70;;
17858;SDS011;35426;30.698;104.050;2022-10-24T13:50:55;138.63;;;81.50;;
17858;SDS011;35426;30.698;104.050;2022-10-24T13:53:41;135.97;;;80.93;;
17858;SDS011;35426;30.698;104.050;2022-10-24T13:56:19;132.17;;;81.13;;
17858;SDS011;35426;30.698;104.050;2022-10-24T13:58:57;139.77;;;86.10;;
17858;SDS011;35426;30.698;104.050;2022-10-24T14:01:32;131.43;;;83.43;;
17858;SDS011;35426;30.698;104.050;2022-10-24T14:04:14;141.27;;;85.77;;
17858;SDS011;35426;30.698;104.050;2022-10-24T14:06:51;141.33;;;86.47;;
17858;SDS011;35426;30.698;104.050;2022-10-24T14:09:37;146.80;;;89.47;;
17858;SDS011;35426;30.698;104.050;2022-10-24T14:12:18;152.03;;;88.80;;
17858;SDS011;35426;30.698;104.050;2022-10-24T14:14:55;145.67;;;88.70;;
17858;SDS011;35426;30.698;104.050;2022-10-24T14:17:32;148.03;;;91.23;;
17858;SDS011;35426;30.698;104.050;2022-10-24T14:20:21;152.33;;;91.33;;
17858;SDS011;35426;30.698;104.050;2022-10-24T14:23:14;153.00;;;96.67;;
17858;SDS011;35426;30.698;104.050;2022-10-24T14:25:57;157.00;;;95.77;;
17858;SDS011;35426;30.698;104.050;2022-10-24T14:28:36;149.10;;;94.13;;
17858;SDS011;35426;30.698;104.050;2022-10-24T14:31:18;153.50;;;96.20;;
17858;SDS011;35426;30.698;104.050;2022-10-24T14:33:54;158.97;;;98.30;;
17858;SDS011;35426;30.698;104.050;2022-10-24T14:36:36;155.27;;;97.50;;
17858;SDS011;35426;30.698;104.050;2022-10-24T14:39:12;160.30;;;99.73;;
17858;SDS011;35426;30.698;104.050;2022-10-24T14:41:52;156.30;;;97.63;;
17858;SDS011;35426;30.698;104.050;2022-10-24T14:44:30;151.63;;;94.87;;
17858;SDS011;35426;30.698;104.050;2022-10-24T14:47:16;151.37;;;95.40;;
17858;SDS011;35426;30.698;104.050;2022-10-24T14:50:00;152.47;;;97.47;;
17858;SDS011;35426;30.698;104.050;2022-10-24T14:52:39;154.97;;;96.23;;
17858;SDS011;35426;30.698;104.050;2022-10-24T14:55:19;150.90;;;97.67;;
17858;SDS011;35426;30.698;104.050;2022-10-24T14:58:01;158.27;;;99.37;;
17858;SDS011;35426;30.698;104.050;2022-10-24T15:00:36;154.67;;;98.20;;
17858;SDS011;35426;30.698;104.050;2022-10-24T15:03:12;158.60;;;102.27;;
17858;SDS011;35426;30.698;104.050;2022-10-24T15:05:56;151.30;;;100.73;;
17858;SDS011;35426;30.698;104.050;2022-10-24T15:08:46;164.77;;;104.07;;
17858;SDS011;35426;30.698;104.050;2022-10-24T15:11:37;162.03;;;98.90;;
17858;SDS011;35426;30.698;104.050;2022-10-24T15:14:31;158.30;;;100.30;;
17858;SDS011;35426;30.698;104.050;2022-10-24T15:17:21;153.37;;;97.70;;
17858;SDS011;35426;30.698;104.050;2022-10-24T15:20:00;148.13;;;95.90;;
17858;SDS011;35426;30.698;104.050;2022-10-24T15:22:37;147.43;;;93.93;;